createdAt,value
2018-12-09T00:00:14.952Z,98467.09
2018-12-09T00:02:43.313Z,98466.09
2018-12-09T00:05:11.636Z,98460.27
2018-12-09T00:07:39.859Z,98453.44
2018-12-09T00:10:08.168Z,98455.05
2018-12-09T00:12:36.941Z,98449.27
2018-12-09T00:15:05.497Z,98444.27
2018-12-09T00:17:33.925Z,98451.11
2018-12-09T00:20:02.206Z,98441.91
2018-12-09T00:22:30.481Z,98446.91
2018-12-09T00:24:58.811Z,98433.24
2018-12-09T00:27:27.121Z,98427.45
2018-12-09T00:29:55.353Z,98421.41
2018-12-09T00:32:23.689Z,98420.63
2018-12-09T00:34:51.976Z,98411.95
2018-12-09T00:37:20.247Z,98406.69
2018-12-09T00:39:48.545Z,98405.11
2018-12-09T00:46:13.101Z,98409.32
2018-12-09T00:48:41.346Z,98390.89
2018-12-09T00:51:09.640Z,98385.89
2018-12-09T00:53:37.881Z,98382.73
2018-12-09T00:56:06.141Z,98380.64
2018-12-09T00:58:34.430Z,98378.80
2018-12-09T01:01:02.779Z,98381.16
2018-12-09T01:03:31.088Z,98381.16
2018-12-09T01:05:59.325Z,98375.64
2018-12-09T01:08:27.540Z,98364.86
2018-12-09T01:10:55.789Z,98368.54
2018-12-09T01:13:24.177Z,98375.11
2018-12-09T01:15:52.515Z,98383.25
2018-12-09T01:18:20.779Z,98383.78
2018-12-09T01:20:49.104Z,98385.58
2018-12-09T01:23:17.370Z,98385.03
2018-12-09T01:25:45.599Z,98386.09
2018-12-09T01:28:13.936Z,98387.88
2018-12-09T01:30:42.298Z,98387.07
2018-12-09T01:33:10.827Z,98400.72
2018-12-09T01:35:39.037Z,98417.52
2018-12-09T01:38:07.372Z,98429.33
2018-12-09T01:40:40.911Z,98435.36
2018-12-09T01:43:09.531Z,98456.06
2018-12-09T01:45:37.843Z,98453.41
2018-12-09T01:48:06.169Z,98459.16
2018-12-09T01:50:34.489Z,98459.09
2018-12-09T01:53:14.275Z,98466.96
2018-12-09T01:55:42.548Z,98458.89
2018-12-09T01:58:10.963Z,98471.75
2018-12-09T02:00:39.283Z,98469.87
2018-12-09T02:03:07.487Z,98475.38
2018-12-09T02:05:35.836Z,98477.18
2018-12-09T02:08:10.995Z,98481.58
2018-12-09T02:10:39.343Z,98467.86
2018-12-09T02:13:07.542Z,98478.88
2018-12-09T02:15:45.720Z,98480.14
2018-12-09T02:18:13.946Z,98486.67
2018-12-09T02:20:42.223Z,98490.61
2018-12-09T02:23:10.573Z,98490.10
2018-12-09T02:25:38.882Z,98496.05
2018-12-09T02:28:07.141Z,98501.03
2018-12-09T02:30:35.385Z,98505.20
2018-12-09T02:33:03.666Z,98496.79
2018-12-09T02:35:36.577Z,98501.52
2018-12-09T02:38:04.830Z,98510.16
2018-12-09T02:40:33.197Z,98514.84
2018-12-09T02:45:35.974Z,98522.05
2018-12-09T02:48:04.300Z,98529.92
2018-12-09T02:50:32.639Z,98528.30
2018-12-09T02:53:00.948Z,98535.30
2018-12-09T02:55:29.621Z,98539.25
2018-12-09T02:57:57.876Z,98539.48
2018-12-09T03:00:26.073Z,98541.31
2018-12-09T03:02:54.330Z,98544.20
2018-12-09T03:05:22.747Z,98548.63
2018-12-09T03:07:51.002Z,98548.06
2018-12-09T03:10:19.288Z,98542.84
2018-12-09T03:12:47.562Z,98549.10
2018-12-09T03:15:21.563Z,98554.52
2018-12-09T03:17:50.294Z,98548.45
2018-12-09T03:20:18.505Z,98563.88
2018-12-09T03:22:46.902Z,98567.51
2018-12-09T03:25:15.152Z,98570.92
2018-12-09T03:27:43.367Z,98565.63
2018-12-09T03:30:11.659Z,98563.33
2018-12-09T03:32:39.893Z,98564.07
2018-12-09T03:35:08.578Z,98568.92
2018-12-09T03:37:36.832Z,98576.78
2018-12-09T03:40:05.430Z,98579.19
2018-12-09T03:42:33.918Z,98568.46
2018-12-09T03:45:02.131Z,98576.81
2018-12-09T03:47:30.510Z,98578.31
2018-12-09T03:49:59.764Z,98578.31
2018-12-09T03:52:28.300Z,98581.15
2018-12-09T03:54:56.544Z,98579.53
2018-12-09T03:57:24.848Z,98589.95
2018-12-09T03:59:53.136Z,98591.38
2018-12-09T04:02:21.387Z,98596.11
2018-12-09T04:04:49.690Z,98596.38
2018-12-09T04:07:18.024Z,98596.16
2018-12-09T04:09:46.241Z,98602.17
2018-12-09T04:12:14.485Z,98593.27
2018-12-09T04:14:42.729Z,98594.86
2018-12-09T04:17:10.930Z,98603.99
2018-12-09T04:19:39.234Z,98603.50
2018-12-09T04:22:07.540Z,98616.61
2018-12-09T04:24:35.874Z,98617.34
2018-12-09T04:27:04.798Z,98607.69
2018-12-09T04:29:33.038Z,98612.44
2018-12-09T04:32:01.279Z,98610.23
2018-12-09T04:34:29.519Z,98614.90
2018-12-09T04:36:57.806Z,98620.45
2018-12-09T04:39:26.368Z,98612.31
2018-12-09T04:42:01.215Z,98619.72
2018-12-09T04:44:29.463Z,98614.99
2018-12-09T04:46:57.921Z,98623.13
2018-12-09T04:49:26.439Z,98623.41
2018-12-09T04:51:56.446Z,98626.55
2018-12-09T04:54:25.934Z,98632.09
2018-12-09T04:56:57.975Z,98627.36
2018-12-09T04:59:27.054Z,98626.84
2018-12-09T05:01:55.325Z,98633.88
2018-12-09T05:04:23.783Z,98631.05
2018-12-09T05:06:52.125Z,98634.73
2018-12-09T05:09:20.405Z,98632.33
2018-12-09T05:11:49.038Z,98634.44
2018-12-09T05:14:17.370Z,98639.22
2018-12-09T05:16:45.587Z,98641.78
2018-12-09T05:19:13.804Z,98642.08
2018-12-09T05:21:42.133Z,98648.12
2018-12-09T05:24:10.442Z,98648.45
2018-12-09T05:26:38.664Z,98649.95
2018-12-09T05:29:06.924Z,98654.16
2018-12-09T05:31:35.131Z,98658.87
2018-12-09T05:34:03.358Z,98650.83
2018-12-09T05:36:31.594Z,98663.97
2018-12-09T05:38:59.806Z,98663.20
2018-12-09T05:41:28.036Z,98671.03
2018-12-09T05:43:56.310Z,98666.09
2018-12-09T05:46:24.556Z,98675.23
2018-12-09T05:48:52.778Z,98680.00
2018-12-09T05:51:21.000Z,98681.31
2018-12-09T05:53:49.218Z,98683.93
2018-12-09T05:56:17.436Z,98686.80
2018-12-09T05:58:45.714Z,98696.48
2018-12-09T06:01:13.944Z,98709.34
2018-12-09T06:03:42.305Z,98703.31
2018-12-09T06:06:10.616Z,98715.90
2018-12-09T06:08:38.866Z,98707.21
2018-12-09T06:11:07.142Z,98713.80
2018-12-09T06:13:35.514Z,98715.07
2018-12-09T06:16:03.740Z,98719.28
2018-12-09T06:18:32.061Z,98716.14
2018-12-09T06:21:00.244Z,98713.55
2018-12-09T06:23:28.551Z,98720.38
2018-12-09T06:28:49.686Z,98729.63
2018-12-09T06:34:11.024Z,98729.59
2018-12-09T06:36:39.278Z,98729.89
2018-12-09T06:39:07.604Z,98739.38
2018-12-09T06:41:35.891Z,98745.23
2018-12-09T06:44:04.202Z,98737.89
2018-12-09T06:46:32.461Z,98743.95
2018-12-09T06:49:00.826Z,98746.55
2018-12-09T06:51:29.097Z,98750.72
2018-12-09T06:53:57.426Z,98758.34
2018-12-09T06:56:25.742Z,98752.62
2018-12-09T06:58:53.983Z,98759.69
2018-12-09T07:01:22.184Z,98760.48
2018-12-09T07:03:50.435Z,98770.21
2018-12-09T07:06:18.664Z,98774.91
2018-12-09T07:08:47.017Z,98770.97
2018-12-09T07:11:15.262Z,98787.25
2018-12-09T07:13:43.499Z,98790.43
2018-12-09T07:16:11.812Z,98790.19
2018-12-09T07:18:40.247Z,98802.05
2018-12-09T07:21:08.567Z,98800.50
2018-12-09T07:23:36.861Z,98799.88
2018-12-09T07:26:05.276Z,98803.58
2018-12-09T07:28:33.546Z,98809.40
2018-12-09T07:31:01.761Z,98816.75
2018-12-09T07:33:30.167Z,98813.89
2018-12-09T07:35:58.434Z,98822.52
2018-12-09T07:38:26.920Z,98817.48
2018-12-09T07:40:55.271Z,98816.78
2018-12-09T07:43:23.654Z,98828.83
2018-12-09T07:45:51.961Z,98836.69
2018-12-09T07:48:20.207Z,98840.08
2018-12-09T07:50:48.509Z,98842.39
2018-12-09T07:53:16.757Z,98851.95
2018-12-09T07:55:45.176Z,98847.53
2018-12-09T07:58:13.488Z,98850.36
2018-12-09T08:00:45.509Z,98855.36
2018-12-09T08:03:13.714Z,98868.55
2018-12-09T08:05:41.941Z,98858.09
2018-12-09T08:08:10.308Z,98869.34
2018-12-09T08:10:42.308Z,98874.34
2018-12-09T08:13:10.546Z,98873.00
2018-12-09T08:15:38.832Z,98873.83
2018-12-09T08:18:07.106Z,98872.20
2018-12-09T08:20:35.852Z,98886.39
2018-12-09T08:23:04.398Z,98877.21
2018-12-09T08:25:32.656Z,98889.95
2018-12-09T08:28:00.885Z,98905.86
2018-12-09T08:30:29.171Z,98910.27
2018-12-09T08:32:57.403Z,98910.93
2018-12-09T08:35:25.669Z,98919.56
2018-12-09T08:37:53.981Z,98920.05
2018-12-09T08:40:22.275Z,98911.45
2018-12-09T08:42:50.639Z,98925.08
2018-12-09T08:48:11.716Z,98926.27
2018-12-09T08:50:39.934Z,98930.75
2018-12-09T08:53:08.209Z,98939.94
2018-12-09T08:55:36.599Z,98933.79
2018-12-09T08:58:04.909Z,98940.59
2018-12-09T09:00:33.130Z,98943.02
2018-12-09T09:03:01.395Z,98947.22
2018-12-09T09:05:29.710Z,98942.88
2018-12-09T09:07:58.051Z,98948.09
2018-12-09T09:10:26.437Z,98968.08
2018-12-09T09:12:54.718Z,98973.50
2018-12-09T09:15:22.945Z,98967.39
2018-12-09T09:17:51.199Z,98973.39
2018-12-09T09:20:19.392Z,98974.84
2018-12-09T09:22:47.635Z,98960.65
2018-12-09T09:25:15.913Z,98982.12
2018-12-09T09:27:44.269Z,98969.70
2018-12-09T09:30:12.610Z,98970.38
2018-12-09T09:32:40.989Z,98980.05
2018-12-09T09:35:09.558Z,98978.58
2018-12-09T09:37:37.754Z,98980.47
2018-12-09T09:40:07.824Z,98981.99
2018-12-09T09:42:36.119Z,98976.57
2018-12-09T09:45:05.259Z,98981.34
2018-12-09T09:47:33.502Z,98977.13
2018-12-09T09:50:01.762Z,98980.86
2018-12-09T09:52:30.038Z,98978.23
2018-12-09T09:54:58.282Z,98978.34
2018-12-09T09:57:26.614Z,98977.09
2018-12-09T09:59:54.872Z,98980.27
2018-12-09T10:02:23.219Z,98985.28
2018-12-09T10:04:51.489Z,98976.89
2018-12-09T10:07:19.861Z,98995.55
2018-12-09T10:09:48.117Z,98979.75
2018-12-09T10:12:17.167Z,98990.12
2018-12-09T10:14:45.646Z,98990.39
2018-12-09T10:17:13.903Z,98990.95
2018-12-09T10:19:42.636Z,98994.78
2018-12-09T10:22:27.339Z,99002.37
2018-12-09T10:24:55.852Z,99014.40
2018-12-09T10:27:24.095Z,99017.30
2018-12-09T10:29:52.344Z,99003.59
2018-12-09T10:35:13.783Z,99004.45
2018-12-09T10:37:42.091Z,99006.45
2018-12-09T10:40:10.340Z,99021.41
2018-12-09T10:42:38.610Z,99020.96
2018-12-09T10:45:07.017Z,99027.35
2018-12-09T10:47:35.271Z,99024.10
2018-12-09T10:50:03.670Z,99016.70
2018-12-09T10:52:31.966Z,99011.53
2018-12-09T10:57:52.784Z,99024.34
2018-12-09T11:00:26.616Z,99021.23
2018-12-09T11:02:54.851Z,99034.70
2018-12-09T11:05:23.070Z,99042.52
2018-12-09T11:07:51.289Z,99044.41
2018-12-09T11:10:19.662Z,99045.20
2018-12-09T11:12:47.968Z,99048.22
2018-12-09T11:15:16.194Z,99059.77
2018-12-09T11:17:44.438Z,99063.34
2018-12-09T11:20:12.684Z,99072.25
2018-12-09T11:22:42.912Z,99074.60
2018-12-09T11:25:11.299Z,99085.55
2018-12-09T11:27:39.560Z,99091.83
2018-12-09T11:30:08.344Z,99107.30
2018-12-09T11:32:36.591Z,99091.96
2018-12-09T11:35:05.499Z,99100.27
2018-12-09T11:37:33.845Z,99092.03
2018-12-09T11:40:02.087Z,99086.22
2018-12-09T11:42:30.415Z,99090.33
2018-12-09T11:44:58.697Z,99094.82
2018-12-09T11:47:27.026Z,99079.79
2018-12-09T11:49:55.285Z,99092.78
2018-12-09T11:52:23.743Z,99097.60
2018-12-09T11:54:52.153Z,99096.33
2018-12-09T11:57:20.533Z,99087.10
2018-12-09T11:59:51.259Z,99092.11
2018-12-09T12:02:20.073Z,99094.34
2018-12-09T12:04:48.512Z,99104.25
2018-12-09T12:07:16.743Z,99106.88
2018-12-09T12:09:45.057Z,99101.63
2018-12-09T12:12:13.531Z,99109.26
2018-12-09T12:14:41.785Z,99096.41
2018-12-09T12:17:10.142Z,99098.67
2018-12-09T12:19:38.363Z,99111.56
2018-12-09T12:24:59.458Z,99107.39
2018-12-09T12:27:27.686Z,99111.05
2018-12-09T12:32:48.638Z,99113.67
2018-12-09T12:35:16.888Z,99113.91
2018-12-09T12:37:45.162Z,99118.04
2018-12-09T12:40:13.433Z,99120.42
2018-12-09T12:42:41.664Z,99122.86
2018-12-09T12:45:10.038Z,99135.55
2018-12-09T12:47:38.363Z,99141.95
2018-12-09T12:50:06.747Z,99147.08
2018-12-09T12:52:35.091Z,99148.11
2018-12-09T12:55:03.495Z,99161.75
2018-12-09T12:57:31.807Z,99146.72
2018-12-09T13:00:00.026Z,99152.72
2018-12-09T13:02:28.439Z,99157.73
2018-12-09T13:04:56.710Z,99169.59
2018-12-09T13:07:24.953Z,99177.94
2018-12-09T13:09:53.443Z,99174.80
2018-12-09T13:12:21.665Z,99179.49
2018-12-09T13:14:49.938Z,99186.73
2018-12-09T13:17:18.175Z,99190.91
2018-12-09T13:19:46.408Z,99191.74
2018-12-09T13:22:14.842Z,99198.30
2018-12-09T13:24:43.110Z,99201.73
2018-12-09T13:27:11.455Z,99206.55
2018-12-09T13:29:39.799Z,99209.13
2018-12-09T13:32:08.031Z,99220.39
2018-12-09T13:34:36.334Z,99220.86
2018-12-09T13:37:04.571Z,99225.92
2018-12-09T13:39:32.815Z,99225.64
2018-12-09T13:42:01.048Z,99232.53
2018-12-09T13:44:29.282Z,99231.49
2018-12-09T13:46:57.744Z,99242.23
2018-12-09T13:49:26.054Z,99242.42
2018-12-09T13:51:54.369Z,99255.08
2018-12-09T13:54:22.615Z,99265.02
2018-12-09T13:56:50.885Z,99265.53
2018-12-09T13:59:19.136Z,99272.61
2018-12-09T14:01:47.351Z,99272.56
2018-12-09T14:04:15.724Z,99277.02
2018-12-09T14:06:43.993Z,99273.92
2018-12-09T14:09:12.307Z,99288.55
2018-12-09T14:11:40.715Z,99294.37
2018-12-09T14:14:08.997Z,99298.54
2018-12-09T14:16:37.500Z,99306.41
2018-12-09T14:19:05.856Z,99305.44
2018-12-09T14:21:34.119Z,99307.87
2018-12-09T14:24:02.419Z,99320.63
2018-12-09T14:26:30.661Z,99325.13
2018-12-09T14:28:59.607Z,99342.19
2018-12-09T14:31:29.832Z,99349.50
2018-12-09T14:33:58.066Z,99362.06
2018-12-09T14:36:26.428Z,99366.15
2018-12-09T14:38:54.694Z,99372.20
2018-12-09T14:41:23.082Z,99373.28
2018-12-09T14:43:51.378Z,99370.09
2018-12-09T14:46:19.619Z,99388.18
2018-12-09T14:48:47.923Z,99396.91
2018-12-09T14:51:16.185Z,99407.92
2018-12-09T14:53:44.648Z,99417.86
2018-12-09T14:56:12.916Z,99420.57
2018-12-09T14:58:41.192Z,99421.83
2018-12-09T15:01:09.565Z,99423.14
2018-12-09T15:06:30.424Z,99443.11
2018-12-09T15:08:58.803Z,99435.36
2018-12-09T15:11:27.276Z,99439.30
2018-12-09T15:16:48.135Z,99447.45
2018-12-09T15:22:09.367Z,99456.75
2018-12-09T15:24:41.433Z,99462.59
2018-12-09T15:27:07.944Z,99467.62
2018-12-09T15:29:36.335Z,99466.53
2018-12-09T15:34:57.982Z,99486.98
2018-12-09T15:37:26.257Z,99489.75
2018-12-09T15:39:54.534Z,99498.02
2018-12-09T15:42:22.774Z,99495.52
2018-12-09T15:44:51.093Z,99498.23
2018-12-09T15:47:19.481Z,99502.16
2018-12-09T15:49:47.718Z,99518.31
2018-12-09T15:52:16.068Z,99521.34
2018-12-09T15:54:44.389Z,99523.05
2018-12-09T15:57:12.617Z,99528.18
2018-12-09T15:59:40.906Z,99533.43
2018-12-09T16:02:09.269Z,99533.20
2018-12-09T16:07:30.172Z,99545.59
2018-12-09T16:09:58.528Z,99552.50
2018-12-09T16:12:26.810Z,99569.33
2018-12-09T16:14:55.109Z,99569.39
2018-12-09T16:17:23.377Z,99572.68
2018-12-09T16:19:51.681Z,99572.68
2018-12-09T16:22:19.930Z,99586.08
2018-12-09T16:24:48.397Z,99587.54
2018-12-09T16:27:16.638Z,99595.64
2018-12-09T16:29:45.032Z,99609.95
2018-12-09T16:32:13.383Z,99602.27
2018-12-09T16:34:41.846Z,99608.83
2018-12-09T16:37:10.161Z,99613.66
2018-12-09T16:39:38.435Z,99620.86
2018-12-09T16:42:06.783Z,99632.89
2018-12-09T16:44:35.254Z,99633.92
2018-12-09T16:47:03.590Z,99633.06
2018-12-09T16:49:31.897Z,99640.33
2018-12-09T16:52:00.159Z,99638.89
2018-12-09T16:54:28.441Z,99647.69
2018-12-09T16:56:56.812Z,99655.50
2018-12-09T16:59:25.113Z,99650.70
2018-12-09T17:01:53.358Z,99647.50
2018-12-09T17:04:21.639Z,99669.23
2018-12-09T17:06:49.964Z,99668.91
2018-12-09T17:09:18.242Z,99667.19
2018-12-09T17:14:39.270Z,99681.11
2018-12-09T17:17:08.383Z,99692.70
2018-12-09T17:19:37.778Z,99706.47
2018-12-09T17:22:06.227Z,99709.31
2018-12-09T17:26:13.078Z,99719.30
2018-12-09T17:28:41.351Z,99725.59
2018-12-09T17:31:09.718Z,99754.83
2018-12-09T17:33:46.108Z,99754.03
2018-12-09T17:36:14.396Z,99757.89
2018-12-09T17:38:42.709Z,99763.88
2018-12-09T17:41:10.972Z,99763.63
2018-12-09T17:43:39.347Z,99768.30
2018-12-09T17:46:07.600Z,99762.40
2018-12-09T17:48:39.288Z,99785.14
2018-12-09T17:51:07.575Z,99788.72
2018-12-09T17:53:35.824Z,99786.60
2018-12-09T17:56:04.171Z,99793.96
2018-12-09T17:58:32.517Z,99810.07
2018-12-09T18:01:00.755Z,99818.96
2018-12-09T18:03:29.289Z,99820.13
2018-12-09T18:05:58.376Z,99822.75
2018-12-09T18:08:27.408Z,99833.83
2018-12-09T18:10:56.581Z,99826.84
2018-12-09T18:13:25.341Z,99843.74
2018-12-09T18:16:01.057Z,99844.77
2018-12-09T18:18:29.300Z,99856.22
2018-12-09T18:20:59.083Z,99857.67
2018-12-09T18:23:27.376Z,99841.13
2018-12-09T18:25:55.650Z,99863.86
2018-12-09T18:28:23.935Z,99862.77
2018-12-09T18:30:52.479Z,99871.67
2018-12-09T18:33:20.946Z,99898.98
2018-12-09T18:35:49.335Z,99885.28
2018-12-09T18:38:17.702Z,99891.84
2018-12-09T18:40:46.207Z,99913.42
2018-12-09T18:43:14.554Z,99913.93
2018-12-09T18:45:43.012Z,99917.95
2018-12-09T18:48:11.590Z,99922.61
2018-12-09T18:50:39.889Z,99931.06
2018-12-09T18:53:08.258Z,99944.85
2018-12-09T18:55:36.544Z,99932.52
2018-12-09T18:58:05.360Z,99946.45
2018-12-09T19:00:33.773Z,99952.27
2018-12-09T19:03:02.075Z,99959.42
2018-12-09T19:05:30.368Z,99959.93
2018-12-09T19:07:58.767Z,99966.48
2018-12-09T19:10:27.037Z,99969.03
2018-12-09T19:12:55.385Z,99969.94
2018-12-09T19:15:23.668Z,99978.53
2018-12-09T19:17:51.924Z,99996.08
2018-12-09T19:20:20.294Z,99997.91
2018-12-09T19:22:48.606Z,100001.05
2018-12-09T19:25:16.854Z,100005.92
2018-12-09T19:27:45.217Z,100021.36
2018-12-09T19:30:13.518Z,100018.28
2018-12-09T19:32:41.934Z,100035.42
2018-12-09T19:35:10.283Z,100030.52
2018-12-09T19:40:31.549Z,100043.97
2018-12-09T19:42:59.987Z,100060.63
2018-12-09T19:48:21.449Z,100061.64
2018-12-09T19:50:49.832Z,100054.97
2018-12-09T19:53:18.364Z,100067.06
2018-12-09T19:55:46.778Z,100068.38
2018-12-09T19:58:25.743Z,100078.69
2018-12-09T20:00:54.233Z,100080.17
2018-12-09T20:03:39.108Z,100089.86
2018-12-09T20:06:07.629Z,100094.09
2018-12-09T20:08:36.017Z,100095.91
2018-12-09T20:11:04.455Z,100103.86
2018-12-09T20:13:32.976Z,100116.77
2018-12-09T20:16:01.258Z,100115.04
2018-12-09T20:21:22.532Z,100120.20
2018-12-09T20:23:50.818Z,100139.45
2018-12-09T20:26:19.112Z,100140.26
2018-12-09T20:28:47.500Z,100141.48
2018-12-09T20:31:16.021Z,100151.14
2018-12-09T20:33:44.534Z,100156.20
2018-12-09T20:36:12.886Z,100175.28
2018-12-09T20:38:41.282Z,100161.33
2018-12-09T20:41:09.865Z,100168.91
2018-12-09T20:43:38.314Z,100179.52
2018-12-09T20:46:06.713Z,100175.09
2018-12-09T20:48:35.189Z,100188.00
2018-12-09T20:51:03.780Z,100179.63
2018-12-09T20:53:36.152Z,100195.98
2018-12-09T20:56:04.509Z,100195.98
2018-12-09T20:58:47.778Z,100213.93
2018-12-09T21:01:16.306Z,100210.50
2018-12-09T21:03:44.799Z,100214.94
2018-12-09T21:06:13.349Z,100215.45
2018-12-09T21:08:54.514Z,100213.92
2018-12-09T21:11:22.933Z,100222.11
2018-12-09T21:13:51.184Z,100232.80
2018-12-09T21:16:19.506Z,100239.35
2018-12-09T21:18:47.764Z,100239.77
2018-12-09T21:21:16.061Z,100248.92
2018-12-09T21:23:44.410Z,100242.37
2018-12-09T21:26:12.833Z,100244.19
2018-12-09T21:28:41.157Z,100251.66
2018-12-09T21:31:09.498Z,100255.69
2018-12-09T21:33:37.775Z,100268.50
2018-12-09T21:36:06.089Z,100264.67
2018-12-09T21:38:34.719Z,100263.46
2018-12-09T21:41:02.996Z,100272.73
2018-12-09T21:43:31.448Z,100271.13
2018-12-09T21:45:59.801Z,100280.00
2018-12-09T21:48:28.113Z,100292.50
2018-12-09T21:50:56.502Z,100296.62
2018-12-09T21:53:24.900Z,100294.31
2018-12-09T21:55:53.293Z,100292.31
2018-12-09T21:58:21.618Z,100306.84
2018-12-09T22:00:49.978Z,100311.75
2018-12-09T22:03:18.274Z,100315.41
2018-12-09T22:05:46.562Z,100319.73
2018-12-09T22:08:14.887Z,100323.78
2018-12-09T22:10:43.135Z,100323.18
2018-12-09T22:13:11.389Z,100342.25
2018-12-09T22:15:39.716Z,100339.19
2018-12-09T22:18:08.088Z,100354.72
2018-12-09T22:20:36.382Z,100359.27
2018-12-09T22:23:04.706Z,100362.80
2018-12-09T22:25:32.963Z,100361.48
2018-12-09T22:28:01.250Z,100366.42
2018-12-09T22:30:29.511Z,100373.08
2018-12-09T22:33:00.711Z,100380.03
2018-12-09T22:35:28.995Z,100384.17
2018-12-09T22:37:57.234Z,100384.38
2018-12-09T22:40:25.547Z,100386.89
2018-12-09T22:42:53.754Z,100390.83
2018-12-09T22:45:22.056Z,100395.16
2018-12-09T22:47:50.328Z,100400.11
2018-12-09T22:50:18.713Z,100406.97
2018-12-09T22:52:47.111Z,100405.15
2018-12-09T22:55:15.368Z,100409.68
2018-12-09T23:00:38.113Z,100418.72
2018-12-09T23:03:06.522Z,100418.55
2018-12-09T23:05:34.895Z,100434.95
2018-12-09T23:08:03.187Z,100428.41
2018-12-09T23:10:31.483Z,100436.41
2018-12-09T23:12:59.723Z,100438.22
2018-12-09T23:15:28.014Z,100444.07
2018-12-09T23:17:56.277Z,100447.16
2018-12-09T23:20:24.491Z,100464.19
2018-12-09T23:22:52.827Z,100460.66
2018-12-09T23:25:21.092Z,100474.36
2018-12-09T23:27:49.378Z,100484.03
2018-12-09T23:30:17.688Z,100485.95
2018-12-09T23:32:45.994Z,100489.89
2018-12-09T23:35:14.321Z,100493.91
2018-12-09T23:37:42.569Z,100500.77
2018-12-09T23:40:10.843Z,100501.83
2018-12-09T23:42:39.070Z,100512.87
2018-12-09T23:45:07.533Z,100508.08
2018-12-09T23:47:35.862Z,100501.77
2018-12-09T23:52:57.361Z,100514.71
2018-12-09T23:55:25.587Z,100513.88
2018-12-09T23:57:53.825Z,100517.31
